Terminal Aerodrome Forecast
Issued by NWS Nashville, TN

Home | Current Version | Previous Version | Text Only | Print | Product List | Glossary On
Versions: 1 2 3 4 5 6 7 8 9 10 11 12 13 14 15 16 17 18
000
FTUS44 KOHX 030431 AAA
TAFCSV
TAF AMD
KCSV 030431Z 0305/0324 33004KT P6SM BKN200
     FM030800 00000KT 4SM BR BKN080 BKN200
      TEMPO 0309/0313 2SM BR SCT080 SCT200
     FM031400 36003KT P6SM BKN080 BKN200=

USA.gov is the U.S. government's official web portal to all federal, state and local government web resources and services.